sensor_id;sensor_type;location;lat;lon;timestamp;pressure;altitude;pressure_sealevel;temperature;humidity
47530;BME280;33272;51.922;7.730;2023-06-26T00:02:18;147734.03;;;21.06;100.00
47530;BME280;33272;51.922;7.730;2023-06-26T00:04:45;147725.03;;;21.02;100.00
47530;BME280;33272;51.922;7.730;2023-06-26T00:07:12;147714.84;;;20.98;100.00
47530;BME280;33272;51.922;7.730;2023-06-26T00:09:38;147709.72;;;20.96;100.00
47530;BME280;33272;51.922;7.730;2023-06-26T00:12:07;147703.34;;;20.94;100.00
47530;BME280;33272;51.922;7.730;2023-06-26T00:14:34;147693.09;;;20.90;100.00
47530;BME280;33272;51.922;7.730;2023-06-26T00:17:01;147686.75;;;20.87;100.00
47530;BME280;33272;51.922;7.730;2023-06-26T00:19:28;147679.09;;;20.84;100.00
47530;BME280;33272;51.922;7.730;2023-06-26T00:21:55;147670.09;;;20.80;100.00
47530;BME280;33272;51.922;7.730;2023-06-26T00:24:22;147665.03;;;20.78;100.00
47530;BME280;33272;51.922;7.730;2023-06-26T00:26:49;147658.63;;;20.76;100.00
47530;BME280;33272;51.922;7.730;2023-06-26T00:29:17;147650.94;;;20.73;100.00
47530;BME280;33272;51.922;7.730;2023-06-26T00:31:44;147642.03;;;20.69;100.00
47530;BME280;33272;51.922;7.730;2023-06-26T00:34:11;147635.63;;;20.67;100.00
47530;BME280;33272;51.922;7.730;2023-06-26T00:36:38;147629.22;;;20.64;100.00
47530;BME280;33272;51.922;7.730;2023-06-26T00:39:09;147620.28;;;20.60;100.00
47530;BME280;33272;51.922;7.730;2023-06-26T00:41:36;147612.63;;;20.57;100.00
47530;BME280;33272;51.922;7.730;2023-06-26T00:44:04;147604.94;;;20.54;100.00
47530;BME280;33272;51.922;7.730;2023-06-26T00:46:33;147594.69;;;20.50;100.00
47530;BME280;33272;51.922;7.730;2023-06-26T00:49:02;147588.31;;;20.48;100.00
47530;BME280;33272;51.922;7.730;2023-06-26T00:51:31;147578.09;;;20.44;100.00
47530;BME280;33272;51.922;7.730;2023-06-26T00:53:58;147567.84;;;20.40;100.00
47530;BME280;33272;51.922;7.730;2023-06-26T00:56:25;147565.31;;;20.38;100.00
47530;BME280;33272;51.922;7.730;2023-06-26T00:58:52;147560.22;;;20.36;100.00
47530;BME280;33272;51.922;7.730;2023-06-26T01:01:19;147555.09;;;20.34;100.00
47530;BME280;33272;51.922;7.730;2023-06-26T01:03:50;147552.56;;;20.33;100.00
47530;BME280;33272;51.922;7.730;2023-06-26T01:06:20;147547.44;;;20.31;100.00
47530;BME280;33272;51.922;7.730;2023-06-26T01:08:48;147543.59;;;20.30;100.00
47530;BME280;33272;51.922;7.730;2023-06-26T01:11:16;147542.31;;;20.29;100.00
47530;BME280;33272;51.922;7.730;2023-06-26T01:13:43;147537.25;;;20.27;100.00
47530;BME280;33272;51.922;7.730;2023-06-26T01:16:11;147529.56;;;20.24;100.00
47530;BME280;33272;51.922;7.730;2023-06-26T01:18:39;147521.91;;;20.21;100.00
47530;BME280;33272;51.922;7.730;2023-06-26T01:21:09;147510.38;;;20.17;100.00
47530;BME280;33272;51.922;7.730;2023-06-26T01:23:42;147505.31;;;20.14;100.00
47530;BME280;33272;51.922;7.730;2023-06-26T01:26:20;147489.97;;;20.08;100.00
47530;BME280;33272;51.922;7.730;2023-06-26T01:28:50;147486.13;;;20.07;100.00
47530;BME280;33272;51.922;7.730;2023-06-26T01:31:18;147482.31;;;20.05;100.00
47530;BME280;33272;51.922;7.730;2023-06-26T01:33:46;147479.72;;;20.04;100.00
47530;BME280;33272;51.922;7.730;2023-06-26T01:36:14;147478.47;;;20.04;100.00
47530;BME280;33272;51.922;7.730;2023-06-26T01:38:41;147478.47;;;20.04;100.00
47530;BME280;33272;51.922;7.730;2023-06-26T01:41:08;147478.47;;;20.04;100.00
47530;BME280;33272;51.922;7.730;2023-06-26T01:43:46;147477.19;;;20.03;100.00
47530;BME280;33272;51.922;7.730;2023-06-26T01:46:22;147473.34;;;20.02;100.00
47530;BME280;33272;51.922;7.730;2023-06-26T01:48:59;147468.25;;;20.00;100.00
47530;BME280;33272;51.922;7.730;2023-06-26T01:51:35;147464.41;;;19.98;100.00
47530;BME280;33272;51.922;7.730;2023-06-26T01:54:03;147459.34;;;19.96;100.00
47530;BME280;33272;51.922;7.730;2023-06-26T01:56:32;147455.47;;;19.95;100.00
47530;BME280;33272;51.922;7.730;2023-06-26T01:59:02;147446.53;;;19.91;100.00
47530;BME280;33272;51.922;7.730;2023-06-26T02:01:31;147442.72;;;19.89;100.00
47530;BME280;33272;51.922;7.730;2023-06-26T02:03:59;147436.34;;;19.87;100.00
47530;BME280;33272;51.922;7.730;2023-06-26T02:06:26;147429.94;;;19.84;100.00
47530;BME280;33272;51.922;7.730;2023-06-26T02:08:53;147422.28;;;19.81;100.00
47530;BME280;33272;51.922;7.730;2023-06-26T02:11:22;147415.91;;;19.79;100.00
47530;BME280;33272;51.922;7.730;2023-06-26T02:13:49;147413.34;;;19.78;100.00
47530;BME280;33272;51.922;7.730;2023-06-26T02:16:17;147409.50;;;19.76;100.00
47530;BME280;33272;51.922;7.730;2023-06-26T02:18:44;147404.44;;;19.74;100.00
47530;BME280;33272;51.922;7.730;2023-06-26T02:21:11;147403.16;;;19.74;100.00
47530;BME280;33272;51.922;7.730;2023-06-26T02:23:38;147403.16;;;19.74;100.00
47530;BME280;33272;51.922;7.730;2023-06-26T02:26:05;147396.78;;;19.71;100.00
47530;BME280;33272;51.922;7.730;2023-06-26T02:28:32;147392.91;;;19.70;100.00
47530;BME280;33272;51.922;7.730;2023-06-26T02:31:00;147390.38;;;19.68;100.00
47530;BME280;33272;51.922;7.730;2023-06-26T02:33:28;147387.84;;;19.67;100.00
47530;BME280;33272;51.922;7.730;2023-06-26T02:35:56;147385.25;;;19.66;100.00
47530;BME280;33272;51.922;7.730;2023-06-26T02:38:23;147381.44;;;19.65;100.00
47530;BME280;33272;51.922;7.730;2023-06-26T02:40:50;147383.97;;;19.66;100.00
47530;BME280;33272;51.922;7.730;2023-06-26T02:43:16;147381.44;;;19.65;100.00
47530;BME280;33272;51.922;7.730;2023-06-26T02:45:43;147375.00;;;19.62;100.00
47530;BME280;33272;51.922;7.730;2023-06-26T02:48:10;147372.47;;;19.61;100.00
47530;BME280;33272;51.922;7.730;2023-06-26T02:50:39;147369.88;;;19.60;100.00
47530;BME280;33272;51.922;7.730;2023-06-26T02:53:06;147367.34;;;19.59;100.00
47530;BME280;33272;51.922;7.730;2023-06-26T02:55:34;147368.59;;;19.60;100.00
47530;BME280;33272;51.922;7.730;2023-06-26T02:58:01;147367.34;;;19.59;100.00
47530;BME280;33272;51.922;7.730;2023-06-26T03:00:28;147367.34;;;19.59;100.00
47530;BME280;33272;51.922;7.730;2023-06-26T03:02:56;147366.06;;;19.59;100.00
47530;BME280;33272;51.922;7.730;2023-06-26T03:05:23;147362.22;;;19.57;100.00
47530;BME280;33272;51.922;7.730;2023-06-26T03:07:51;147359.69;;;19.56;100.00
47530;BME280;33272;51.922;7.730;2023-06-26T03:10:18;147358.41;;;19.56;100.00
47530;BME280;33272;51.922;7.730;2023-06-26T03:12:45;147354.56;;;19.54;100.00
47530;BME280;33272;51.922;7.730;2023-06-26T03:15:12;147352.03;;;19.53;100.00
47530;BME280;33272;51.922;7.730;2023-06-26T03:17:39;147348.22;;;19.52;100.00
47530;BME280;33272;51.922;7.730;2023-06-26T03:20:07;147345.63;;;19.51;100.00
47530;BME280;33272;51.922;7.730;2023-06-26T03:22:35;147341.81;;;19.49;100.00
47530;BME280;33272;51.922;7.730;2023-06-26T03:25:04;147343.09;;;19.50;100.00
47530;BME280;33272;51.922;7.730;2023-06-26T03:27:31;147340.56;;;19.49;100.00
47530;BME280;33272;51.922;7.730;2023-06-26T03:29:58;147341.81;;;19.49;100.00
47530;BME280;33272;51.922;7.730;2023-06-26T03:32:25;147340.56;;;19.49;100.00
47530;BME280;33272;51.922;7.730;2023-06-26T03:34:52;147346.91;;;19.51;100.00
47530;BME280;33272;51.922;7.730;2023-06-26T03:37:19;147344.38;;;19.50;100.00
47530;BME280;33272;51.922;7.730;2023-06-26T03:39:46;147349.47;;;19.52;100.00
47530;BME280;33272;51.922;7.730;2023-06-26T03:42:15;147352.03;;;19.53;100.00
47530;BME280;33272;51.922;7.730;2023-06-26T03:44:41;147378.84;;;19.64;100.00
47530;BME280;33272;51.922;7.730;2023-06-26T03:47:08;147456.75;;;19.95;100.00
47530;BME280;33272;51.922;7.730;2023-06-26T03:49:35;147555.09;;;20.34;100.00
47530;BME280;33272;51.922;7.730;2023-06-26T03:52:02;147666.28;;;20.79;100.00
47530;BME280;33272;51.922;7.730;2023-06-26T03:54:29;147763.38;;;21.18;100.00
47530;BME280;33272;51.922;7.730;2023-06-26T03:56:58;147812.00;;;21.37;100.00
47530;BME280;33272;51.922;7.730;2023-06-26T03:59:26;147809.47;;;21.36;100.00
47530;BME280;33272;51.922;7.730;2023-06-26T04:01:53;147789.00;;;21.28;100.00
47530;BME280;33272;51.922;7.730;2023-06-26T04:04:20;147769.78;;;21.20;100.00
47530;BME280;33272;51.922;7.730;2023-06-26T04:06:47;147757.00;;;21.15;100.00
47530;BME280;33272;51.922;7.730;2023-06-26T04:09:14;147745.50;;;21.11;100.00
47530;BME280;33272;51.922;7.730;2023-06-26T04:11:41;147737.84;;;21.08;100.00
47530;BME280;33272;51.922;7.730;2023-06-26T04:14:08;147739.09;;;21.08;100.00
47530;BME280;33272;51.922;7.730;2023-06-26T04:16:36;147795.34;;;21.30;100.00
47530;BME280;33272;51.922;7.730;2023-06-26T04:19:03;147919.41;;;21.80;100.00
47530;BME280;33272;51.922;7.730;2023-06-26T04:21:31;148063.94;;;22.38;100.00
47530;BME280;33272;51.922;7.730;2023-06-26T04:23:57;148200.88;;;22.93;100.00
47530;BME280;33272;51.922;7.730;2023-06-26T04:26:24;148302.03;;;23.33;100.00
47530;BME280;33272;51.922;7.730;2023-06-26T04:28:53;148348.09;;;23.51;100.00
47530;BME280;33272;51.922;7.730;2023-06-26T04:31:20;148341.72;;;23.49;100.00
47530;BME280;33272;51.922;7.730;2023-06-26T04:33:49;148316.09;;;23.39;98.54
47530;BME280;33272;51.922;7.730;2023-06-26T04:36:16;148276.41;;;23.23;98.10
47530;BME280;33272;51.922;7.730;2023-06-26T04:38:43;148239.31;;;23.08;97.45
47530;BME280;33272;51.922;7.730;2023-06-26T04:41:10;148221.38;;;23.01;97.84
47530;BME280;33272;51.922;7.730;2023-06-26T04:43:37;148203.47;;;22.94;97.33
47530;BME280;33272;51.922;7.730;2023-06-26T04:46:04;148180.38;;;22.84;96.45
47530;BME280;33272;51.922;7.730;2023-06-26T04:48:32;148163.75;;;22.78;95.57
47530;BME280;33272;51.922;7.730;2023-06-26T04:51:01;148147.13;;;22.71;95.51
47530;BME280;33272;51.922;7.730;2023-06-26T04:53:27;148134.31;;;22.66;93.95
47530;BME280;33272;51.922;7.730;2023-06-26T04:55:54;148129.22;;;22.64;94.91
47530;BME280;33272;51.922;7.730;2023-06-26T04:58:21;148138.19;;;22.67;95.11
47530;BME280;33272;51.922;7.730;2023-06-26T05:00:48;148127.91;;;22.63;94.41
47530;BME280;33272;51.922;7.730;2023-06-26T05:03:17;148153.53;;;22.74;94.44
47530;BME280;33272;51.922;7.730;2023-06-26T05:05:44;148176.56;;;22.83;94.85
47530;BME280;33272;51.922;7.730;2023-06-26T05:08:17;148191.94;;;22.89;93.01
47530;BME280;33272;51.922;7.730;2023-06-26T05:10:45;148209.88;;;22.96;93.87
47530;BME280;33272;51.922;7.730;2023-06-26T05:13:13;148221.38;;;23.01;94.43
47530;BME280;33272;51.922;7.730;2023-06-26T05:15:43;148252.09;;;23.13;93.32
47530;BME280;33272;51.922;7.730;2023-06-26T05:18:10;148243.16;;;23.09;93.62
47530;BME280;33272;51.922;7.730;2023-06-26T05:20:38;148275.13;;;23.22;92.89
47530;BME280;33272;51.922;7.730;2023-06-26T05:23:05;148336.59;;;23.47;93.47
47530;BME280;33272;51.922;7.730;2023-06-26T05:25:34;148387.78;;;23.67;91.46
47530;BME280;33272;51.922;7.730;2023-06-26T05:28:02;148366.03;;;23.58;92.97
47530;BME280;33272;51.922;7.730;2023-06-26T05:30:32;148362.19;;;23.57;93.11
47530;BME280;33272;51.922;7.730;2023-06-26T05:33:01;148405.78;;;23.74;91.34
47530;BME280;33272;51.922;7.730;2023-06-26T05:35:29;148442.88;;;23.89;92.83
47530;BME280;33272;51.922;7.730;2023-06-26T05:37:58;148542.81;;;24.29;92.35
47530;BME280;33272;51.922;7.730;2023-06-26T05:40:26;148650.47;;;24.72;90.97
47530;BME280;33272;51.922;7.730;2023-06-26T05:42:55;148773.53;;;25.21;90.04
47530;BME280;33272;51.922;7.730;2023-06-26T05:45:22;148892.75;;;25.69;88.41
47530;BME280;33272;51.922;7.730;2023-06-26T05:47:49;148955.63;;;25.94;85.69
47530;BME280;33272;51.922;7.730;2023-06-26T05:50:18;149021.00;;;26.20;84.93
47530;BME280;33272;51.922;7.730;2023-06-26T05:52:47;149035.13;;;26.25;85.87
47530;BME280;33272;51.922;7.730;2023-06-26T05:55:14;149014.66;;;26.17;84.58
47530;BME280;33272;51.922;7.730;2023-06-26T05:57:42;149017.19;;;26.18;85.02
47530;BME280;33272;51.922;7.730;2023-06-26T06:00:13;149049.25;;;26.31;84.11
47530;BME280;33272;51.922;7.730;2023-06-26T06:02:42;149000.53;;;26.11;84.57
47530;BME280;33272;51.922;7.730;2023-06-26T06:05:09;149045.44;;;26.29;84.00
47530;BME280;33272;51.922;7.730;2023-06-26T06:07:36;149133.97;;;26.65;82.91
47530;BME280;33272;51.922;7.730;2023-06-26T06:10:04;149119.88;;;26.59;80.58
47530;BME280;33272;51.922;7.730;2023-06-26T06:12:31;149100.63;;;26.51;80.67
47530;BME280;33272;51.922;7.730;2023-06-26T06:14:58;149026.16;;;26.22;80.15
47530;BME280;33272;51.922;7.730;2023-06-26T06:17:27;149031.31;;;26.24;79.86
47530;BME280;33272;51.922;7.730;2023-06-26T06:19:54;149013.38;;;26.17;81.79
47530;BME280;33272;51.922;7.730;2023-06-26T06:22:21;149014.66;;;26.17;82.44
47530;BME280;33272;51.922;7.730;2023-06-26T06:24:49;149040.28;;;26.27;81.21
47530;BME280;33272;51.922;7.730;2023-06-26T06:27:17;149032.59;;;26.24;80.94
47530;BME280;33272;51.922;7.730;2023-06-26T06:29:44;149014.66;;;26.17;81.76
47530;BME280;33272;51.922;7.730;2023-06-26T06:32:11;149131.38;;;26.64;79.55
47530;BME280;33272;51.922;7.730;2023-06-26T06:34:39;149250.72;;;27.11;78.23
47530;BME280;33272;51.922;7.730;2023-06-26T06:37:06;149302.13;;;27.32;77.70
47530;BME280;33272;51.922;7.730;2023-06-26T06:39:33;149347.06;;;27.49;76.87
47530;BME280;33272;51.922;7.730;2023-06-26T06:42:00;149250.72;;;27.11;74.12
47530;BME280;33272;51.922;7.730;2023-06-26T06:44:27;149177.59;;;26.82;77.87
47530;BME280;33272;51.922;7.730;2023-06-26T06:46:56;149160.91;;;26.75;77.89
47530;BME280;33272;51.922;7.730;2023-06-26T06:49:23;149030.03;;;26.23;78.52
47530;BME280;33272;51.922;7.730;2023-06-26T06:51:51;148909.41;;;25.75;80.00
47530;BME280;33272;51.922;7.730;2023-06-26T06:54:18;148872.25;;;25.60;81.43
47530;BME280;33272;51.922;7.730;2023-06-26T06:56:45;148829.91;;;25.43;81.53
47530;BME280;33272;51.922;7.730;2023-06-26T06:59:12;148814.53;;;25.37;81.76
47530;BME280;33272;51.922;7.730;2023-06-26T07:01:39;148818.41;;;25.39;82.21
47530;BME280;33272;51.922;7.730;2023-06-26T07:04:06;148836.34;;;25.46;81.10
47530;BME280;33272;51.922;7.730;2023-06-26T07:06:33;148881.22;;;25.64;80.96
47530;BME280;33272;51.922;7.730;2023-06-26T07:09:02;148909.41;;;25.75;80.74
47530;BME280;33272;51.922;7.730;2023-06-26T07:11:29;148860.69;;;25.56;81.52
47530;BME280;33272;51.922;7.730;2023-06-26T07:13:56;148727.31;;;25.03;82.76
47530;BME280;33272;51.922;7.730;2023-06-26T07:16:23;148578.75;;;24.43;84.85
47530;BME280;33272;51.922;7.730;2023-06-26T07:18:50;148558.19;;;24.35;85.40
47530;BME280;33272;51.922;7.730;2023-06-26T07:21:17;148538.97;;;24.27;85.93
47530;BME280;33272;51.922;7.730;2023-06-26T07:23:45;148545.34;;;24.30;86.07
47530;BME280;33272;51.922;7.730;2023-06-26T07:26:14;148563.31;;;24.37;86.12
47530;BME280;33272;51.922;7.730;2023-06-26T07:28:42;148580.00;;;24.44;86.43
47530;BME280;33272;51.922;7.730;2023-06-26T07:31:09;148613.31;;;24.57;86.47
47530;BME280;33272;51.922;7.730;2023-06-26T07:33:36;148677.38;;;24.83;85.94
47530;BME280;33272;51.922;7.730;2023-06-26T07:36:03;148738.88;;;25.07;85.03
47530;BME280;33272;51.922;7.730;2023-06-26T07:38:30;148790.19;;;25.28;84.70
47530;BME280;33272;51.922;7.730;2023-06-26T07:40:57;148824.81;;;25.41;83.35
47530;BME280;33272;51.922;7.730;2023-06-26T07:43:25;148826.09;;;25.42;83.76
47530;BME280;33272;51.922;7.730;2023-06-26T07:45:52;148851.72;;;25.52;83.75
47530;BME280;33272;51.922;7.730;2023-06-26T07:48:20;148823.56;;;25.41;84.40
47530;BME280;33272;51.922;7.730;2023-06-26T07:50:47;148836.34;;;25.46;84.55
47530;BME280;33272;51.922;7.730;2023-06-26T07:53:14;148815.84;;;25.38;84.69
47530;BME280;33272;51.922;7.730;2023-06-26T07:55:40;148810.72;;;25.36;84.63
47530;BME280;33272;51.922;7.730;2023-06-26T07:58:08;148806.84;;;25.34;84.41
47530;BME280;33272;51.922;7.730;2023-06-26T08:00:36;148819.69;;;25.39;83.89
47530;BME280;33272;51.922;7.730;2023-06-26T08:03:03;148804.28;;;25.33;84.54
47530;BME280;33272;51.922;7.730;2023-06-26T08:05:31;148829.91;;;25.43;84.13
47530;BME280;33272;51.922;7.730;2023-06-26T08:07:58;148856.88;;;25.54;82.82
47530;BME280;33272;51.922;7.730;2023-06-26T08:10:27;148859.41;;;25.55;81.90
47530;BME280;33272;51.922;7.730;2023-06-26T08:12:54;148855.59;;;25.54;83.18
47530;BME280;33272;51.922;7.730;2023-06-26T08:15:21;148908.13;;;25.75;82.36
47530;BME280;33272;51.922;7.730;2023-06-26T08:17:50;148933.81;;;25.85;81.59
47530;BME280;33272;51.922;7.730;2023-06-26T08:20:17;148942.84;;;25.88;81.76
47530;BME280;33272;51.922;7.730;2023-06-26T08:22:45;148945.38;;;25.89;81.91
47530;BME280;33272;51.922;7.730;2023-06-26T08:25:13;148851.72;;;25.52;83.83
47530;BME280;33272;51.922;7.730;2023-06-26T08:27:40;148885.03;;;25.65;82.21
47530;BME280;33272;51.922;7.730;2023-06-26T08:30:08;148908.13;;;25.75;81.79
47530;BME280;33272;51.922;7.730;2023-06-26T08:32:36;148964.59;;;25.97;81.44
47530;BME280;33272;51.922;7.730;2023-06-26T08:35:06;148986.41;;;26.06;80.37
47530;BME280;33272;51.922;7.730;2023-06-26T08:37:35;149033.84;;;26.25;81.12
47530;BME280;33272;51.922;7.730;2023-06-26T08:40:03;149058.22;;;26.34;78.07
47530;BME280;33272;51.922;7.730;2023-06-26T08:42:31;149074.91;;;26.41;79.40
47530;BME280;33272;51.922;7.730;2023-06-26T08:44:58;149030.03;;;26.23;79.66
47530;BME280;33272;51.922;7.730;2023-06-26T08:47:25;149012.03;;;26.16;78.68
47530;BME280;33272;51.922;7.730;2023-06-26T08:50:01;149021.00;;;26.20;79.20
47530;BME280;33272;51.922;7.730;2023-06-26T08:52:37;149065.94;;;26.38;78.23
47530;BME280;33272;51.922;7.730;2023-06-26T08:55:10;149059.50;;;26.35;79.47
47530;BME280;33272;51.922;7.730;2023-06-26T08:57:38;149139.09;;;26.67;79.07
47530;BME280;33272;51.922;7.730;2023-06-26T09:00:07;149110.88;;;26.55;77.85
47530;BME280;33272;51.922;7.730;2023-06-26T09:02:36;149109.63;;;26.55;78.44
47530;BME280;33272;51.922;7.730;2023-06-26T09:05:03;149103.19;;;26.52;78.32
47530;BME280;33272;51.922;7.730;2023-06-26T09:07:32;149173.75;;;26.80;76.62
47530;BME280;33272;51.922;7.730;2023-06-26T09:09:59;149192.97;;;26.88;77.18
47530;BME280;33272;51.922;7.730;2023-06-26T09:12:27;149148.13;;;26.70;77.47
47530;BME280;33272;51.922;7.730;2023-06-26T09:14:55;149121.13;;;26.60;77.39
47530;BME280;33272;51.922;7.730;2023-06-26T09:17:24;149060.78;;;26.35;77.64
47530;BME280;33272;51.922;7.730;2023-06-26T09:19:52;149059.50;;;26.35;76.63
47530;BME280;33272;51.922;7.730;2023-06-26T09:22:19;149037.72;;;26.26;76.28
47530;BME280;33272;51.922;7.730;2023-06-26T09:24:48;149039.00;;;26.27;76.66
47530;BME280;33272;51.922;7.730;2023-06-26T09:27:16;149091.56;;;26.48;76.60
47530;BME280;33272;51.922;7.730;2023-06-26T09:29:45;149145.50;;;26.69;75.28
47530;BME280;33272;51.922;7.730;2023-06-26T09:32:13;149121.13;;;26.60;73.31
47530;BME280;33272;51.922;7.730;2023-06-26T09:34:42;149104.47;;;26.53;73.93
47530;BME280;33272;51.922;7.730;2023-06-26T09:37:12;149024.88;;;26.21;71.91
47530;BME280;33272;51.922;7.730;2023-06-26T09:39:39;148997.97;;;26.10;71.99
47530;BME280;33272;51.922;7.730;2023-06-26T09:42:08;148994.09;;;26.09;71.68
47530;BME280;33272;51.922;7.730;2023-06-26T09:44:35;148962.03;;;25.96;71.19
47530;BME280;33272;51.922;7.730;2023-06-26T09:47:02;148974.88;;;26.01;72.53
47530;BME280;33272;51.922;7.730;2023-06-26T09:49:31;149030.03;;;26.23;72.64
47530;BME280;33272;51.922;7.730;2023-06-26T09:52:00;149068.47;;;26.39;69.98
47530;BME280;33272;51.922;7.730;2023-06-26T09:54:28;149140.41;;;26.67;70.83
47530;BME280;33272;51.922;7.730;2023-06-26T09:56:55;149195.59;;;26.89;70.29
47530;BME280;33272;51.922;7.730;2023-06-26T09:59:24;149187.88;;;26.86;68.47
47530;BME280;33272;51.922;7.730;2023-06-26T10:01:59;149252.03;;;27.12;67.43
47530;BME280;33272;51.922;7.730;2023-06-26T10:04:26;149232.75;;;27.04;68.02
47530;BME280;33272;51.922;7.730;2023-06-26T10:06:56;149113.44;;;26.56;65.75
47530;BME280;33272;51.922;7.730;2023-06-26T10:09:24;149060.78;;;26.35;67.85
47530;BME280;33272;51.922;7.730;2023-06-26T10:11:56;149053.13;;;26.32;68.55
47530;BME280;33272;51.922;7.730;2023-06-26T10:14:27;149013.38;;;26.17;66.60
47530;BME280;33272;51.922;7.730;2023-06-26T10:16:58;148977.44;;;26.02;67.72
47530;BME280;33272;51.922;7.730;2023-06-26T10:19:27;148945.38;;;25.89;65.32
47530;BME280;33272;51.922;7.730;2023-06-26T10:21:55;149017.19;;;26.18;66.92
47530;BME280;33272;51.922;7.730;2023-06-26T10:24:24;149095.50;;;26.49;65.83
47530;BME280;33272;51.922;7.730;2023-06-26T10:26:59;149154.50;;;26.73;63.89
47530;BME280;33272;51.922;7.730;2023-06-26T10:29:31;149194.25;;;26.89;64.92
47530;BME280;33272;51.922;7.730;2023-06-26T10:32:00;149180.19;;;26.83;59.54
47530;BME280;33272;51.922;7.730;2023-06-26T10:34:29;149133.97;;;26.65;62.65
47530;BME280;33272;51.922;7.730;2023-06-26T10:36:59;149125.00;;;26.61;62.13
47530;BME280;33272;51.922;7.730;2023-06-26T10:39:27;149119.88;;;26.59;62.21
47530;BME280;33272;51.922;7.730;2023-06-26T10:41:55;149116.00;;;26.57;58.49
47530;BME280;33272;51.922;7.730;2023-06-26T10:44:22;149125.00;;;26.61;59.55
47530;BME280;33272;51.922;7.730;2023-06-26T10:46:51;149144.22;;;26.69;59.09
47530;BME280;33272;51.922;7.730;2023-06-26T10:49:19;149205.84;;;26.93;59.17
47530;BME280;33272;51.922;7.730;2023-06-26T10:51:47;149241.75;;;27.08;59.09
47530;BME280;33272;51.922;7.730;2023-06-26T10:54:16;149316.25;;;27.37;58.48
47530;BME280;33272;51.922;7.730;2023-06-26T10:56:45;149359.88;;;27.55;57.60
47530;BME280;33272;51.922;7.730;2023-06-26T10:59:18;149399.69;;;27.70;53.12
47530;BME280;33272;51.922;7.730;2023-06-26T11:01:46;149331.66;;;27.43;53.86
47530;BME280;33272;51.922;7.730;2023-06-26T11:04:37;149279.03;;;27.22;55.43
47530;BME280;33272;51.922;7.730;2023-06-26T11:07:19;149272.59;;;27.20;53.93
47530;BME280;33272;51.922;7.730;2023-06-26T11:09:57;149285.44;;;27.25;53.45
47530;BME280;33272;51.922;7.730;2023-06-26T11:12:42;149240.47;;;27.07;51.06
47530;BME280;33272;51.922;7.730;2023-06-26T11:15:11;149275.19;;;27.21;55.29
47530;BME280;33272;51.922;7.730;2023-06-26T11:17:39;149309.84;;;27.35;55.34
47530;BME280;33272;51.922;7.730;2023-06-26T11:20:10;149312.38;;;27.36;55.78
47530;BME280;33272;51.922;7.730;2023-06-26T11:22:39;149323.97;;;27.40;56.06
47530;BME280;33272;51.922;7.730;2023-06-26T11:25:08;149379.16;;;27.62;55.84
47530;BME280;33272;51.922;7.730;2023-06-26T11:27:38;149368.88;;;27.58;55.44
47530;BME280;33272;51.922;7.730;2023-06-26T11:30:08;149340.66;;;27.47;55.00
47530;BME280;33272;51.922;7.730;2023-06-26T11:32:37;149286.72;;;27.25;54.43
47530;BME280;33272;51.922;7.730;2023-06-26T11:35:05;149313.66;;;27.36;53.11
47530;BME280;33272;51.922;7.730;2023-06-26T11:37:34;149304.69;;;27.33;51.70
47530;BME280;33272;51.922;7.730;2023-06-26T11:40:16;149241.75;;;27.08;47.00
47530;BME280;33272;51.922;7.730;2023-06-26T11:42:44;149259.78;;;27.15;50.80
47530;BME280;33272;51.922;7.730;2023-06-26T11:45:12;149248.16;;;27.10;51.58
47530;BME280;33272;51.922;7.730;2023-06-26T11:47:39;149235.38;;;27.05;51.81
47530;BME280;33272;51.922;7.730;2023-06-26T11:50:16;149176.31;;;26.81;52.97
47530;BME280;33272;51.922;7.730;2023-06-26T11:52:45;149172.47;;;26.80;53.52
47530;BME280;33272;51.922;7.730;2023-06-26T11:55:19;149157.09;;;26.74;54.33
47530;BME280;33272;51.922;7.730;2023-06-26T11:57:48;149144.22;;;26.69;54.06
47530;BME280;33272;51.922;7.730;2023-06-26T12:00:17;149167.34;;;26.78;53.14
47530;BME280;33272;51.922;7.730;2023-06-26T12:02:45;149178.84;;;26.83;51.86
47530;BME280;33272;51.922;7.730;2023-06-26T12:05:14;149151.94;;;26.72;51.80
47530;BME280;33272;51.922;7.730;2023-06-26T12:07:44;149155.75;;;26.73;50.62
47530;BME280;33272;51.922;7.730;2023-06-26T12:10:14;149172.47;;;26.80;52.05
47530;BME280;33272;51.922;7.730;2023-06-26T12:12:42;149196.88;;;26.90;52.23
47530;BME280;33272;51.922;7.730;2023-06-26T12:15:14;149253.31;;;27.12;51.36
47530;BME280;33272;51.922;7.730;2023-06-26T12:17:41;149217.38;;;26.98;52.20
47530;BME280;33272;51.922;7.730;2023-06-26T12:20:18;149212.25;;;26.96;51.89
47530;BME280;33272;51.922;7.730;2023-06-26T12:22:48;149266.16;;;27.17;52.99
47530;BME280;33272;51.922;7.730;2023-06-26T12:25:15;149307.28;;;27.34;53.36
47530;BME280;33272;51.922;7.730;2023-06-26T12:27:48;149295.72;;;27.29;53.30
47530;BME280;33272;51.922;7.730;2023-06-26T12:30:15;149249.44;;;27.11;52.12
47530;BME280;33272;51.922;7.730;2023-06-26T12:32:44;149201.97;;;26.92;50.48
47530;BME280;33272;51.922;7.730;2023-06-26T12:35:12;149189.16;;;26.87;51.63
47530;BME280;33272;51.922;7.730;2023-06-26T12:37:39;149181.47;;;26.84;52.02
47530;BME280;33272;51.922;7.730;2023-06-26T12:40:18;149244.34;;;27.09;49.50
47530;BME280;33272;51.922;7.730;2023-06-26T12:42:47;149300.84;;;27.31;49.57
47530;BME280;33272;51.922;7.730;2023-06-26T12:45:15;149311.09;;;27.35;49.20
47530;BME280;33272;51.922;7.730;2023-06-26T12:47:42;149338.09;;;27.46;46.20
47530;BME280;33272;51.922;7.730;2023-06-26T12:50:09;149424.13;;;27.80;48.97
47530;BME280;33272;51.922;7.730;2023-06-26T12:52:36;149434.41;;;27.84;47.86